createdAt,value
2018-12-14T00:00:33.102Z,0.30
2018-12-14T00:03:00.511Z,0.30
2018-12-14T00:05:27.937Z,0.30
2018-12-14T00:07:55.356Z,0.30
2018-12-14T00:10:22.782Z,0.30
2018-12-14T00:12:50.240Z,0.30
2018-12-14T00:15:18.612Z,0.30
2018-12-14T00:17:46.032Z,0.30
2018-12-14T00:20:14.495Z,0.30
2018-12-14T00:22:42.336Z,0.30
2018-12-14T00:25:09.785Z,0.30
2018-12-14T00:27:37.579Z,0.30
2018-12-14T00:30:05.251Z,0.30
2018-12-14T00:32:32.687Z,0.30
2018-12-14T00:35:00.112Z,0.30
2018-12-14T00:37:28.224Z,0.30
2018-12-14T00:39:55.664Z,0.30
2018-12-14T00:42:26.192Z,0.30
2018-12-14T00:44:53.619Z,0.30
2018-12-14T00:47:21.452Z,0.30
2018-12-14T00:49:48.907Z,0.40
2018-12-14T00:52:17.791Z,0.40
2018-12-14T00:54:49.682Z,0.40
2018-12-14T00:57:17.844Z,0.30
2018-12-14T00:59:47.832Z,0.40
2018-12-14T01:02:21.101Z,0.40
2018-12-14T01:04:48.565Z,0.30
2018-12-14T01:07:15.984Z,0.30
2018-12-14T01:09:43.699Z,0.40
2018-12-14T01:12:11.472Z,0.40
2018-12-14T01:14:38.859Z,0.40
2018-12-14T01:17:07.194Z,0.40
2018-12-14T01:19:34.614Z,0.30
2018-12-14T01:22:02.647Z,0.30
2018-12-14T01:24:30.609Z,0.30
2018-12-14T01:26:58.032Z,0.30
2018-12-14T01:29:25.759Z,0.30
2018-12-14T01:31:53.248Z,0.30
2018-12-14T01:34:20.664Z,0.30
2018-12-14T01:36:48.691Z,0.30
2018-12-14T01:39:16.657Z,0.30
2018-12-14T01:41:44.406Z,0.30
2018-12-14T01:44:18.429Z,0.30
2018-12-14T01:46:46.312Z,0.30
2018-12-14T01:49:13.804Z,0.30
2018-12-14T01:51:41.232Z,0.30
2018-12-14T01:54:08.656Z,0.30
2018-12-14T01:56:37.509Z,0.30
2018-12-14T01:59:04.975Z,0.30
2018-12-14T02:01:32.419Z,0.30
2018-12-14T02:03:59.836Z,0.30
2018-12-14T02:06:27.262Z,0.30
2018-12-14T02:08:54.756Z,0.20
2018-12-14T02:11:24.746Z,0.30
2018-12-14T02:13:52.157Z,0.30
2018-12-14T02:16:19.604Z,0.30
2018-12-14T02:18:47.085Z,0.30
2018-12-14T02:21:14.504Z,0.30
2018-12-14T02:23:48.348Z,0.30
2018-12-14T02:26:15.804Z,0.30
2018-12-14T02:28:43.623Z,0.30
2018-12-14T02:31:11.047Z,0.40
2018-12-14T02:33:38.473Z,0.30
2018-12-14T02:36:05.892Z,0.30
2018-12-14T02:38:33.304Z,0.30
2018-12-14T02:41:00.733Z,0.30
2018-12-14T02:43:28.260Z,0.30
2018-12-14T02:45:56.000Z,0.30
2018-12-14T02:48:24.689Z,0.20
2018-12-14T02:50:52.559Z,0.30
2018-12-14T02:53:19.969Z,0.20
2018-12-14T02:55:47.418Z,0.30
2018-12-14T02:58:16.142Z,0.30
2018-12-14T03:00:43.630Z,0.20
2018-12-14T03:03:11.044Z,0.30
2018-12-14T03:05:38.465Z,0.30
2018-12-14T03:08:05.928Z,0.30
2018-12-14T03:10:33.340Z,0.30
2018-12-14T03:13:01.039Z,0.20
2018-12-14T03:15:28.561Z,0.20
2018-12-14T03:17:56.386Z,0.20
2018-12-14T03:20:23.799Z,0.20
2018-12-14T03:22:51.257Z,0.20
2018-12-14T03:25:19.200Z,0.20
2018-12-14T03:27:47.039Z,0.20
2018-12-14T03:30:14.492Z,0.20
2018-12-14T03:32:41.998Z,0.20
2018-12-14T03:35:09.523Z,0.20
2018-12-14T03:37:36.945Z,0.20
2018-12-14T03:40:05.633Z,0.20
2018-12-14T03:42:34.624Z,0.20
2018-12-14T03:45:02.571Z,0.20
2018-12-14T03:47:30.060Z,0.20
2018-12-14T03:49:57.484Z,0.20
2018-12-14T03:52:24.901Z,0.20
2018-12-14T03:54:52.748Z,0.20
2018-12-14T03:57:21.182Z,0.20
2018-12-14T03:59:48.605Z,0.20
2018-12-14T04:02:16.686Z,0.10
2018-12-14T04:04:44.097Z,0.10
2018-12-14T04:07:11.526Z,0.20
2018-12-14T04:09:39.328Z,0.10
2018-12-14T04:12:07.092Z,0.20
2018-12-14T04:14:34.528Z,0.10
2018-12-14T04:17:02.651Z,0.10
2018-12-14T04:19:30.503Z,0.10
2018-12-14T04:21:58.125Z,0.10
2018-12-14T04:24:25.549Z,0.10
2018-12-14T04:26:53.510Z,0.10
2018-12-14T04:29:20.919Z,0.10
2018-12-14T04:31:48.350Z,0.10
2018-12-14T04:34:15.777Z,0.10
2018-12-14T04:36:43.358Z,0.10
2018-12-14T04:39:11.384Z,0.10
2018-12-14T04:41:38.826Z,0.10
2018-12-14T04:44:06.236Z,0.10
2018-12-14T04:46:34.503Z,0.10
2018-12-14T04:49:04.437Z,0.10
2018-12-14T04:51:31.928Z,0.10
2018-12-14T04:53:59.372Z,0.10
2018-12-14T04:56:26.889Z,0.10
2018-12-14T04:58:54.303Z,0.10
2018-12-14T05:01:22.254Z,0.10
2018-12-14T05:03:50.204Z,0.10
2018-12-14T05:06:18.663Z,0.10
2018-12-14T05:08:46.215Z,0.10
2018-12-14T05:11:13.684Z,0.00
2018-12-14T05:13:41.237Z,0.00
2018-12-14T05:16:08.732Z,0.00
2018-12-14T05:18:36.152Z,0.00
2018-12-14T05:21:03.968Z,0.10
2018-12-14T05:23:31.384Z,0.00
2018-12-14T05:25:59.327Z,0.10
2018-12-14T05:28:26.745Z,0.00
2018-12-14T05:30:54.928Z,0.10
2018-12-14T05:33:22.345Z,0.10
2018-12-14T05:35:49.753Z,0.00
2018-12-14T05:38:17.338Z,0.10
2018-12-14T05:40:44.931Z,0.10
2018-12-14T05:43:12.371Z,0.20
2018-12-14T05:45:39.788Z,0.20
2018-12-14T05:48:07.218Z,0.20
2018-12-14T05:50:35.024Z,0.10
2018-12-14T05:53:02.416Z,0.10
2018-12-14T05:55:29.837Z,0.10
2018-12-14T05:57:57.259Z,0.10
2018-12-14T06:00:24.668Z,0.10
2018-12-14T06:02:53.349Z,0.10
2018-12-14T06:05:22.277Z,0.10
2018-12-14T06:07:49.704Z,0.10
2018-12-14T06:10:17.636Z,0.10
2018-12-14T06:12:45.634Z,0.10
2018-12-14T06:15:13.220Z,0.10
2018-12-14T06:17:40.633Z,0.10
2018-12-14T06:20:08.131Z,0.20
2018-12-14T06:22:35.560Z,0.10
2018-12-14T06:25:04.693Z,0.20
2018-12-14T06:27:32.208Z,0.10
2018-12-14T06:29:59.660Z,0.10
2018-12-14T06:32:27.063Z,0.10
2018-12-14T06:34:54.591Z,0.10
2018-12-14T06:37:22.327Z,0.20
2018-12-14T06:39:50.156Z,0.20
2018-12-14T06:42:17.904Z,0.10
2018-12-14T06:44:45.483Z,0.10
2018-12-14T06:47:12.985Z,0.10
2018-12-14T06:49:40.448Z,0.10
2018-12-14T06:52:07.884Z,0.10
2018-12-14T06:54:35.332Z,0.20
2018-12-14T06:57:02.749Z,0.10
2018-12-14T06:59:30.198Z,0.20
2018-12-14T07:01:57.694Z,0.10
2018-12-14T07:04:25.113Z,0.10
2018-12-14T07:06:52.852Z,0.10
2018-12-14T07:09:20.276Z,0.10
2018-12-14T07:11:47.687Z,0.10
2018-12-14T07:14:15.118Z,0.00
2018-12-14T07:16:42.535Z,0.00
2018-12-14T07:19:09.957Z,0.00
2018-12-14T07:21:37.372Z,0.10
2018-12-14T07:24:04.948Z,0.10
2018-12-14T07:26:33.114Z,0.10
2018-12-14T07:29:02.180Z,0.10
2018-12-14T07:31:29.944Z,0.10
2018-12-14T07:33:57.605Z,0.10
2018-12-14T07:36:25.100Z,0.10
2018-12-14T07:38:53.347Z,0.10
2018-12-14T07:41:20.758Z,0.10
2018-12-14T07:43:48.168Z,0.10
2018-12-14T07:46:16.240Z,0.10
2018-12-14T07:48:43.684Z,0.20
2018-12-14T07:51:11.516Z,0.20
2018-12-14T07:53:38.956Z,0.20
2018-12-14T07:56:06.391Z,0.10
2018-12-14T07:58:33.952Z,0.20
2018-12-14T08:01:01.372Z,0.20
2018-12-14T08:06:03.251Z,0.20
2018-12-14T08:08:30.904Z,0.20
2018-12-14T08:10:59.090Z,0.20
2018-12-14T08:13:27.066Z,0.20
2018-12-14T08:15:55.223Z,0.20
2018-12-14T08:18:22.699Z,0.20
2018-12-14T08:20:50.121Z,0.20
2018-12-14T08:23:18.116Z,0.20
2018-12-14T08:25:45.548Z,0.20
2018-12-14T08:28:12.961Z,0.20
2018-12-14T08:30:41.761Z,0.20
2018-12-14T08:33:09.783Z,0.20
2018-12-14T08:35:37.241Z,0.30
2018-12-14T08:38:04.657Z,0.30
2018-12-14T08:40:32.520Z,0.30
2018-12-14T08:43:00.008Z,0.30
2018-12-14T08:45:27.993Z,0.30
2018-12-14T08:47:57.408Z,0.40
2018-12-14T08:50:24.952Z,0.40
2018-12-14T08:52:52.381Z,0.40
2018-12-14T08:55:20.040Z,0.40
2018-12-14T08:57:47.468Z,0.50
2018-12-14T09:00:15.425Z,0.50
2018-12-14T09:02:42.908Z,0.50
2018-12-14T09:05:10.499Z,0.60
2018-12-14T09:07:38.048Z,0.50
2018-12-14T09:10:06.667Z,0.50
2018-12-14T09:12:34.085Z,0.50
2018-12-14T09:15:01.508Z,0.50
2018-12-14T09:17:28.940Z,0.50
2018-12-14T09:19:56.516Z,0.50
2018-12-14T09:22:23.939Z,0.50
2018-12-14T09:24:51.796Z,0.60
2018-12-14T09:27:19.919Z,0.60
2018-12-14T09:29:47.368Z,0.60
2018-12-14T09:32:14.856Z,0.60
2018-12-14T09:34:42.955Z,0.60
2018-12-14T09:37:10.393Z,0.60
2018-12-14T09:39:37.812Z,0.60
2018-12-14T09:42:05.230Z,0.60
2018-12-14T09:44:32.763Z,0.70
2018-12-14T09:47:00.223Z,0.70
2018-12-14T09:49:27.652Z,0.70
2018-12-14T09:51:55.100Z,0.70
2018-12-14T09:54:22.512Z,0.70
2018-12-14T09:56:49.926Z,0.70
2018-12-14T09:59:17.401Z,0.70
2018-12-14T10:01:45.615Z,0.80
2018-12-14T10:04:13.029Z,0.80
2018-12-14T10:06:40.804Z,0.80
2018-12-14T10:09:12.360Z,0.80
2018-12-14T10:11:39.778Z,0.80
2018-12-14T10:14:07.204Z,0.80
2018-12-14T10:16:34.620Z,0.90
2018-12-14T10:19:02.432Z,0.90
2018-12-14T10:21:30.451Z,0.90
2018-12-14T10:23:58.765Z,0.90
2018-12-14T10:26:26.608Z,0.90
2018-12-14T10:28:54.557Z,1.00
2018-12-14T10:31:22.399Z,1.00
2018-12-14T10:33:49.833Z,1.00
2018-12-14T10:36:19.634Z,1.10
2018-12-14T10:38:47.089Z,1.10
2018-12-14T10:41:14.503Z,1.10
2018-12-14T10:43:42.001Z,1.10
2018-12-14T10:46:09.952Z,1.10
2018-12-14T10:48:37.367Z,1.10
2018-12-14T10:53:39.060Z,1.10
2018-12-14T10:56:06.553Z,1.10
2018-12-14T10:58:34.148Z,1.10
2018-12-14T11:01:07.267Z,1.00
2018-12-14T11:03:34.745Z,1.10
2018-12-14T11:06:02.377Z,1.10
2018-12-14T11:08:30.492Z,1.00
2018-12-14T11:10:58.617Z,1.00
2018-12-14T11:13:26.434Z,1.00
2018-12-14T11:15:53.864Z,1.00
2018-12-14T11:18:21.524Z,1.00
2018-12-14T11:20:48.945Z,1.00
2018-12-14T11:23:16.364Z,1.00
2018-12-14T11:25:44.000Z,1.00
2018-12-14T11:28:11.472Z,1.00
2018-12-14T11:30:38.898Z,1.00
2018-12-14T11:33:07.835Z,1.00
2018-12-14T11:35:35.930Z,1.00
2018-12-14T11:38:03.350Z,1.00
2018-12-14T11:40:30.892Z,1.00
2018-12-14T11:42:58.454Z,0.90
2018-12-14T11:45:25.872Z,1.00
2018-12-14T11:47:53.284Z,1.00
2018-12-14T11:50:20.764Z,1.00
2018-12-14T11:52:48.176Z,0.90
2018-12-14T11:55:15.615Z,0.90
2018-12-14T11:57:43.035Z,0.90
2018-12-14T12:00:10.807Z,0.90
2018-12-14T12:02:43.138Z,0.90
2018-12-14T12:05:07.692Z,0.90
2018-12-14T12:07:35.272Z,0.90
2018-12-14T12:10:04.124Z,0.90
2018-12-14T12:12:31.624Z,0.90
2018-12-14T12:14:59.361Z,0.90
2018-12-14T12:17:26.936Z,0.90
2018-12-14T12:19:54.792Z,0.90
2018-12-14T12:22:22.486Z,0.90
2018-12-14T12:24:49.988Z,0.90
2018-12-14T12:27:18.506Z,0.90
2018-12-14T12:29:46.524Z,0.90
2018-12-14T12:32:13.992Z,1.00
2018-12-14T12:34:41.404Z,1.00
2018-12-14T12:37:08.947Z,1.00
2018-12-14T12:39:36.904Z,0.90
2018-12-14T12:42:04.371Z,0.90
2018-12-14T12:44:33.645Z,0.90
2018-12-14T12:47:01.381Z,0.90
2018-12-14T12:49:29.029Z,0.90
2018-12-14T12:51:57.169Z,0.90
2018-12-14T12:54:24.633Z,0.90
2018-12-14T12:56:52.131Z,0.90
2018-12-14T12:59:19.618Z,0.80
2018-12-14T13:01:47.036Z,0.80
2018-12-14T13:04:15.795Z,0.90
2018-12-14T13:06:43.232Z,0.80
2018-12-14T13:09:10.723Z,0.90
2018-12-14T13:11:38.220Z,0.90
2018-12-14T13:14:06.469Z,0.90
2018-12-14T13:16:34.458Z,0.80
2018-12-14T13:19:01.956Z,0.80
2018-12-14T13:21:32.643Z,0.80
2018-12-14T13:24:01.210Z,0.80
2018-12-14T13:26:28.713Z,0.80
2018-12-14T13:28:56.576Z,0.80
2018-12-14T13:31:24.021Z,0.80
2018-12-14T13:33:51.959Z,0.80
2018-12-14T13:36:19.389Z,0.80
2018-12-14T13:38:46.883Z,0.80
2018-12-14T13:41:16.951Z,0.80
2018-12-14T13:43:44.441Z,0.80
2018-12-14T13:46:12.677Z,0.80
2018-12-14T13:48:40.932Z,0.70
2018-12-14T13:51:08.379Z,0.70
2018-12-14T13:53:36.115Z,0.70
2018-12-14T13:56:03.575Z,0.70
2018-12-14T13:58:31.550Z,0.70
2018-12-14T14:00:58.982Z,0.70
2018-12-14T14:03:29.356Z,0.70
2018-12-14T14:05:56.777Z,0.60
2018-12-14T14:08:24.580Z,0.70
2018-12-14T14:10:52.021Z,0.60
2018-12-14T14:13:19.504Z,0.60
2018-12-14T14:15:50.652Z,0.60
2018-12-14T14:18:17.304Z,0.50
2018-12-14T14:20:44.728Z,0.50
2018-12-14T14:23:12.636Z,0.50
2018-12-14T14:25:40.563Z,0.50
2018-12-14T14:28:07.956Z,0.60
2018-12-14T14:30:35.729Z,0.60
2018-12-14T14:33:03.144Z,0.50
2018-12-14T14:35:30.588Z,0.50
2018-12-14T14:37:58.029Z,0.50
2018-12-14T14:40:25.936Z,0.50
2018-12-14T14:42:53.378Z,0.50
2018-12-14T14:45:21.469Z,0.40
2018-12-14T14:47:48.971Z,0.40
2018-12-14T14:50:17.224Z,0.40
2018-12-14T14:52:45.260Z,0.40
2018-12-14T14:55:12.729Z,0.40
2018-12-14T14:57:41.153Z,0.40
2018-12-14T15:00:08.641Z,0.40
2018-12-14T15:02:36.084Z,0.30
2018-12-14T15:05:04.896Z,0.30
2018-12-14T15:07:32.447Z,0.30
2018-12-14T15:10:00.728Z,0.30
2018-12-14T15:12:28.551Z,0.30
2018-12-14T15:14:56.313Z,0.20
2018-12-14T15:17:23.746Z,0.20
2018-12-14T15:19:51.557Z,0.20
2018-12-14T15:22:19.000Z,0.20
2018-12-14T15:24:46.421Z,0.20
2018-12-14T15:27:14.525Z,0.20
2018-12-14T15:29:41.960Z,0.20
2018-12-14T15:32:09.616Z,0.20
2018-12-14T15:34:37.065Z,0.20
2018-12-14T15:37:04.568Z,0.20
2018-12-14T15:39:32.027Z,0.20
2018-12-14T15:41:59.463Z,0.20
2018-12-14T15:44:28.176Z,0.10
2018-12-14T15:46:55.695Z,0.10
2018-12-14T15:49:23.196Z,0.10
2018-12-14T15:51:51.096Z,0.10
2018-12-14T15:54:18.508Z,0.20
2018-12-14T15:56:47.084Z,0.10
2018-12-14T15:59:14.504Z,0.20
2018-12-14T16:01:43.121Z,0.10
2018-12-14T16:04:10.548Z,0.10
2018-12-14T16:06:38.605Z,0.10
2018-12-14T16:09:06.668Z,0.10
2018-12-14T16:11:34.095Z,0.00
2018-12-14T16:14:01.681Z,0.00
2018-12-14T16:16:29.613Z,0.00
2018-12-14T16:18:57.512Z,0.10
2018-12-14T16:21:25.046Z,0.10
2018-12-14T16:23:52.460Z,0.00
2018-12-14T16:26:19.877Z,0.00
2018-12-14T16:28:47.723Z,0.00
2018-12-14T16:31:15.135Z,0.00
2018-12-14T16:33:42.633Z,0.00
2018-12-14T16:36:10.060Z,0.00
2018-12-14T16:38:37.476Z,0.00
2018-12-14T16:41:05.580Z,0.00
2018-12-14T16:43:33.024Z,0.00
2018-12-14T16:46:00.636Z,0.00
2018-12-14T16:48:28.393Z,0.00
2018-12-14T16:50:55.823Z,-0.10
2018-12-14T16:53:23.415Z,-0.10
2018-12-14T16:55:50.949Z,0.00
2018-12-14T16:58:18.401Z,0.00
2018-12-14T17:00:45.836Z,0.00
2018-12-14T17:03:13.948Z,0.00
2018-12-14T17:05:41.525Z,0.00
2018-12-14T17:08:09.541Z,-0.10
2018-12-14T17:10:39.638Z,-0.10
2018-12-14T17:13:07.180Z,-0.10
2018-12-14T17:15:35.604Z,-0.10
2018-12-14T17:18:03.064Z,-0.10
2018-12-14T17:20:31.069Z,-0.10
2018-12-14T17:22:58.499Z,-0.10
2018-12-14T17:25:26.377Z,-0.10
2018-12-14T17:27:54.544Z,-0.10
2018-12-14T17:30:22.095Z,-0.10
2018-12-14T17:32:49.928Z,-0.10
2018-12-14T17:35:20.297Z,-0.10
2018-12-14T17:37:47.746Z,-0.20
2018-12-14T17:40:15.242Z,-0.20
2018-12-14T17:42:42.714Z,-0.20
2018-12-14T17:45:14.543Z,-0.20
2018-12-14T17:47:41.945Z,-0.20
2018-12-14T17:50:09.417Z,-0.20
2018-12-14T17:52:36.854Z,-0.20
2018-12-14T17:55:04.357Z,-0.20
2018-12-14T17:57:31.775Z,-0.20
2018-12-14T17:59:59.196Z,-0.20
2018-12-14T18:02:26.647Z,-0.20
2018-12-14T18:04:54.577Z,-0.20
2018-12-14T18:07:22.470Z,-0.20
2018-12-14T18:09:49.885Z,-0.30
2018-12-14T18:12:17.301Z,-0.30
2018-12-14T18:14:44.761Z,-0.30
2018-12-14T18:17:12.274Z,-0.30
2018-12-14T18:19:40.049Z,-0.30
2018-12-14T18:22:07.857Z,-0.30
2018-12-14T18:24:35.357Z,-0.30
2018-12-14T18:27:03.185Z,-0.30
2018-12-14T18:29:31.060Z,-0.30
2018-12-14T18:31:58.563Z,-0.30
2018-12-14T18:34:26.431Z,-0.30
2018-12-14T18:36:53.840Z,-0.30
2018-12-14T18:39:21.336Z,-0.30
2018-12-14T18:41:48.757Z,-0.30
2018-12-14T18:44:16.268Z,-0.30
2018-12-14T18:46:43.696Z,-0.40
2018-12-14T18:49:11.116Z,-0.30
2018-12-14T18:51:38.980Z,-0.30
2018-12-14T18:54:06.408Z,-0.30
2018-12-14T18:56:33.853Z,-0.40
2018-12-14T18:59:01.296Z,-0.30
2018-12-14T19:01:28.817Z,-0.30
2018-12-14T19:03:56.301Z,-0.30
2018-12-14T19:06:23.716Z,-0.30
2018-12-14T19:08:51.822Z,-0.30
2018-12-14T19:11:19.252Z,-0.30
2018-12-14T19:13:46.908Z,-0.30
2018-12-14T19:16:14.646Z,-0.30
2018-12-14T19:18:42.960Z,-0.30
2018-12-14T19:21:10.394Z,-0.30
2018-12-14T19:23:37.888Z,-0.30
2018-12-14T19:26:05.312Z,-0.30
2018-12-14T19:28:33.286Z,-0.40
2018-12-14T19:31:00.793Z,-0.40
2018-12-14T19:33:28.220Z,-0.30
2018-12-14T19:35:55.701Z,-0.30
2018-12-14T19:38:23.193Z,-0.30
2018-12-14T19:40:50.755Z,-0.30
2018-12-14T19:43:18.609Z,-0.40
2018-12-14T19:45:46.139Z,-0.40
2018-12-14T19:48:13.563Z,-0.30
2018-12-14T19:50:42.220Z,-0.30
2018-12-14T19:53:10.052Z,-0.40
2018-12-14T19:55:37.488Z,-0.40
2018-12-14T19:58:05.590Z,-0.40
2018-12-14T20:00:33.421Z,-0.40
2018-12-14T20:03:00.840Z,-0.40
2018-12-14T20:05:31.059Z,-0.40
2018-12-14T20:07:58.476Z,-0.40
2018-12-14T20:10:26.423Z,-0.40
2018-12-14T20:12:53.853Z,-0.50
2018-12-14T20:15:21.624Z,-0.50
2018-12-14T20:17:50.598Z,-0.50
2018-12-14T20:20:18.068Z,-0.50
2018-12-14T20:22:46.036Z,-0.50
2018-12-14T20:25:13.481Z,-0.50
2018-12-14T20:27:40.936Z,-0.50
2018-12-14T20:30:08.431Z,-0.50
2018-12-14T20:32:35.927Z,-0.50
2018-12-14T20:35:04.695Z,-0.50
2018-12-14T20:37:32.305Z,-0.50
2018-12-14T20:39:59.995Z,-0.50
2018-12-14T20:42:27.992Z,-0.50
2018-12-14T20:44:55.468Z,-0.50
2018-12-14T20:47:22.884Z,-0.50
2018-12-14T20:49:50.338Z,-0.50
2018-12-14T20:52:17.808Z,-0.50
2018-12-14T20:54:45.233Z,-0.50
2018-12-14T20:57:12.664Z,-0.50
2018-12-14T20:59:40.144Z,-0.40
2018-12-14T21:02:08.878Z,-0.40
2018-12-14T21:04:37.193Z,-0.40
2018-12-14T21:07:04.635Z,-0.40
2018-12-14T21:09:32.307Z,-0.40
2018-12-14T21:11:59.747Z,-0.40
2018-12-14T21:14:28.064Z,-0.40
2018-12-14T21:16:56.020Z,-0.40
2018-12-14T21:19:23.467Z,-0.40
2018-12-14T21:21:51.012Z,-0.40
2018-12-14T21:24:18.844Z,-0.40
2018-12-14T21:26:46.285Z,-0.40
2018-12-14T21:29:16.098Z,-0.40
2018-12-14T21:31:44.002Z,-0.40
2018-12-14T21:34:11.934Z,-0.40
2018-12-14T21:36:39.365Z,-0.40
2018-12-14T21:39:06.915Z,-0.40
2018-12-14T21:41:34.852Z,-0.40
2018-12-14T21:44:02.272Z,-0.40
2018-12-14T21:46:32.758Z,-0.40
2018-12-14T21:48:59.163Z,-0.40
2018-12-14T21:51:27.266Z,-0.40
2018-12-14T21:53:54.692Z,-0.40
2018-12-14T21:56:22.111Z,-0.50
2018-12-14T21:58:50.188Z,-0.50
2018-12-14T22:01:18.008Z,-0.50
2018-12-14T22:03:45.484Z,-0.50
2018-12-14T22:06:12.918Z,-0.50
2018-12-14T22:08:40.405Z,-0.50
2018-12-14T22:11:08.245Z,-0.50
2018-12-14T22:13:35.989Z,-0.50
2018-12-14T22:16:03.670Z,-0.60
2018-12-14T22:18:31.173Z,-0.60
2018-12-14T22:20:58.638Z,-0.50
2018-12-14T22:23:26.152Z,-0.50
2018-12-14T22:25:53.569Z,-0.50
2018-12-14T22:28:21.028Z,-0.50
2018-12-14T22:30:49.071Z,-0.50
2018-12-14T22:33:16.487Z,-0.50
2018-12-14T22:35:43.993Z,-0.40
2018-12-14T22:38:12.140Z,-0.40
2018-12-14T22:40:39.672Z,-0.50
2018-12-14T22:43:07.378Z,-0.50
2018-12-14T22:45:34.807Z,-0.40
2018-12-14T22:48:02.924Z,-0.40
2018-12-14T22:50:30.347Z,-0.40
2018-12-14T22:52:57.824Z,-0.40
2018-12-14T22:55:25.961Z,-0.40
2018-12-14T22:57:53.513Z,-0.40
2018-12-14T23:00:21.717Z,-0.40
2018-12-14T23:02:49.150Z,-0.40
2018-12-14T23:05:17.340Z,-0.40
2018-12-14T23:07:44.769Z,-0.40
2018-12-14T23:10:12.236Z,-0.40
2018-12-14T23:12:39.736Z,-0.40
2018-12-14T23:15:07.604Z,-0.40
2018-12-14T23:17:35.026Z,-0.40
2018-12-14T23:20:03.002Z,-0.40
2018-12-14T23:22:31.496Z,-0.40
2018-12-14T23:24:58.888Z,-0.50
2018-12-14T23:27:26.338Z,-0.40
2018-12-14T23:29:53.799Z,-0.40
2018-12-14T23:32:21.230Z,-0.50
2018-12-14T23:34:49.339Z,-0.50
2018-12-14T23:37:16.880Z,-0.50
2018-12-14T23:39:44.550Z,-0.50
2018-12-14T23:42:13.732Z,-0.50
2018-12-14T23:44:41.214Z,-0.40
2018-12-14T23:47:10.945Z,-0.50
2018-12-14T23:49:38.345Z,-0.50
2018-12-14T23:52:05.769Z,-0.40
2018-12-14T23:54:34.172Z,-0.40
2018-12-14T23:57:01.630Z,-0.40
2018-12-14T23:59:30.152Z,-0.40
